createdAt,value
2019-03-03T00:01:54.043Z,9.90
2019-03-03T00:04:23.894Z,9.90
2019-03-03T00:06:53.800Z,9.90
2019-03-03T00:09:23.894Z,10.00
2019-03-03T00:11:54.021Z,10.00
2019-03-03T00:14:24.275Z,10.00
2019-03-03T00:16:54.519Z,10.00
2019-03-03T00:19:24.725Z,10.00
2019-03-03T00:21:54.820Z,9.90
2019-03-03T00:24:24.891Z,10.00
2019-03-03T00:26:55.043Z,10.00
2019-03-03T00:29:25.341Z,10.00
2019-03-03T00:31:55.712Z,10.00
2019-03-03T00:34:25.645Z,9.90
2019-03-03T00:37:14.911Z,9.90
2019-03-03T00:40:03.066Z,9.90
2019-03-03T00:43:01.051Z,9.80
2019-03-03T00:45:53.075Z,9.70
2019-03-03T00:48:54.167Z,9.60
2019-03-03T00:51:42.342Z,9.40
2019-03-03T00:54:39.735Z,9.30
2019-03-03T00:57:43.493Z,9.30
2019-03-03T01:00:44.675Z,9.20
2019-03-03T01:03:24.199Z,9.20
2019-03-03T01:06:31.927Z,9.20
2019-03-03T01:09:14.006Z,9.30
2019-03-03T01:12:04.299Z,9.30
2019-03-03T01:14:46.438Z,9.30
2019-03-03T01:17:35.701Z,9.30
2019-03-03T01:20:31.313Z,9.40
2019-03-03T01:23:21.327Z,9.50
2019-03-03T01:25:51.832Z,9.50
2019-03-03T01:28:21.940Z,9.50
2019-03-03T01:30:52.203Z,9.50
2019-03-03T01:33:22.216Z,9.60
2019-03-03T01:35:52.833Z,9.60
2019-03-03T01:38:23.182Z,9.60
2019-03-03T01:40:53.301Z,9.60
2019-03-03T01:43:23.875Z,9.60
2019-03-03T01:45:54.173Z,9.60
2019-03-03T01:48:24.124Z,9.50
2019-03-03T01:50:54.172Z,9.40
2019-03-03T01:53:24.708Z,9.40
2019-03-03T01:55:55.873Z,9.40
2019-03-03T01:58:25.774Z,9.40
2019-03-03T02:00:56.305Z,9.40
2019-03-03T02:03:26.470Z,9.40
2019-03-03T02:05:59.560Z,9.40
2019-03-03T02:08:30.092Z,9.40
2019-03-03T02:11:00.445Z,9.40
2019-03-03T02:13:30.635Z,9.40
2019-03-03T02:16:00.888Z,9.40
2019-03-03T02:18:30.997Z,9.40
2019-03-03T02:21:01.367Z,9.40
2019-03-03T02:23:31.336Z,9.30
2019-03-03T02:26:01.339Z,9.30
2019-03-03T02:28:32.656Z,9.30
2019-03-03T02:31:03.322Z,9.30
2019-03-03T02:33:33.558Z,9.30
2019-03-03T02:36:03.676Z,9.40
2019-03-03T02:38:33.754Z,9.40
2019-03-03T02:41:03.696Z,9.50
2019-03-03T02:43:38.998Z,9.50
2019-03-03T02:46:09.030Z,9.40
2019-03-03T02:48:39.592Z,9.40
2019-03-03T02:51:09.982Z,9.50
2019-03-03T02:53:40.065Z,9.40
2019-03-03T02:56:10.416Z,9.40
2019-03-03T02:58:40.360Z,9.40
2019-03-03T03:01:18.572Z,9.40
2019-03-03T03:03:48.638Z,9.40
2019-03-03T03:06:24.850Z,9.40
2019-03-03T03:09:19.092Z,9.50
2019-03-03T03:12:11.337Z,9.50
2019-03-03T03:15:09.589Z,9.50
2019-03-03T03:17:53.667Z,9.50
2019-03-03T03:20:40.479Z,9.60
2019-03-03T03:23:33.222Z,9.60
2019-03-03T03:26:09.848Z,9.60
2019-03-03T03:28:59.419Z,9.60
2019-03-03T03:31:58.281Z,9.60
2019-03-03T03:34:33.676Z,9.50
2019-03-03T03:37:21.606Z,9.50
2019-03-03T03:40:08.791Z,9.50
2019-03-03T03:42:53.045Z,9.50
2019-03-03T03:45:48.353Z,9.60
2019-03-03T03:48:36.907Z,9.50
2019-03-03T03:51:25.245Z,9.60
2019-03-03T03:54:23.818Z,9.60
2019-03-03T03:57:03.424Z,9.50
2019-03-03T03:59:43.085Z,9.50
2019-03-03T04:02:32.029Z,9.50
2019-03-03T04:05:12.284Z,9.40
2019-03-03T04:07:58.583Z,9.40
2019-03-03T04:10:37.372Z,9.30
2019-03-03T04:13:29.774Z,9.30
2019-03-03T04:16:17.495Z,9.30
2019-03-03T04:18:53.996Z,9.30
2019-03-03T04:21:32.904Z,9.20
2019-03-03T04:24:28.602Z,9.20
2019-03-03T04:27:04.034Z,9.20
2019-03-03T04:29:51.732Z,9.20
2019-03-03T04:32:27.959Z,9.10
2019-03-03T04:35:17.980Z,9.10
2019-03-03T04:38:08.214Z,9.10
2019-03-03T04:41:02.000Z,9.00
2019-03-03T04:43:40.818Z,8.90
2019-03-03T04:46:18.394Z,8.90
2019-03-03T04:49:10.595Z,8.90
2019-03-03T04:51:52.309Z,8.90
2019-03-03T04:54:36.132Z,8.80
2019-03-03T04:57:40.683Z,8.80
2019-03-03T05:00:25.330Z,8.80
2019-03-03T05:03:13.308Z,8.80
2019-03-03T05:06:04.488Z,8.80
2019-03-03T05:08:40.717Z,8.80
2019-03-03T05:11:39.505Z,8.70
2019-03-03T05:14:29.183Z,8.70
2019-03-03T05:17:18.462Z,8.70
2019-03-03T05:19:53.079Z,8.70
2019-03-03T05:22:23.231Z,8.70
2019-03-03T05:24:53.687Z,8.70
2019-03-03T05:27:24.046Z,8.70
2019-03-03T05:29:54.095Z,8.70
2019-03-03T05:32:25.478Z,8.70
2019-03-03T05:34:55.565Z,8.80
2019-03-03T05:37:25.737Z,8.80
2019-03-03T05:39:55.570Z,8.90
2019-03-03T05:42:25.626Z,9.00
2019-03-03T05:44:56.119Z,9.10
2019-03-03T05:47:26.188Z,9.10
2019-03-03T05:49:58.140Z,9.20
2019-03-03T05:52:28.363Z,9.30
2019-03-03T05:54:59.127Z,9.30
2019-03-03T05:57:29.339Z,9.30
2019-03-03T05:59:59.385Z,9.40
2019-03-03T06:02:29.420Z,9.40
2019-03-03T06:04:59.464Z,9.40
2019-03-03T06:07:29.464Z,9.40
2019-03-03T06:09:59.733Z,9.40
2019-03-03T06:12:30.282Z,9.40
2019-03-03T06:15:00.371Z,9.40
2019-03-03T06:17:30.477Z,9.40
2019-03-03T06:20:00.655Z,9.50
2019-03-03T06:22:31.014Z,9.50
2019-03-03T06:25:01.081Z,9.60
2019-03-03T06:27:32.913Z,9.60
2019-03-03T06:30:02.951Z,9.60
2019-03-03T06:32:33.019Z,9.60
2019-03-03T06:35:03.352Z,9.60
2019-03-03T06:37:33.542Z,9.70
2019-03-03T06:40:03.714Z,9.70
2019-03-03T06:42:33.824Z,9.70
2019-03-03T06:45:04.162Z,9.70
2019-03-03T06:47:34.042Z,9.70
2019-03-03T06:50:04.791Z,9.70
2019-03-03T06:52:35.691Z,9.80
2019-03-03T06:55:06.626Z,9.80
2019-03-03T06:57:36.939Z,9.80
2019-03-03T07:00:10.790Z,9.80
2019-03-03T07:02:40.903Z,9.80
2019-03-03T07:05:11.349Z,9.80
2019-03-03T07:07:42.054Z,9.90
2019-03-03T07:10:13.949Z,9.90
2019-03-03T07:12:44.249Z,9.90
2019-03-03T07:15:15.868Z,9.90
2019-03-03T07:17:46.015Z,10.00
2019-03-03T07:20:16.735Z,10.00
2019-03-03T07:22:48.132Z,10.10
2019-03-03T07:25:18.354Z,10.10
2019-03-03T07:27:48.827Z,10.10
2019-03-03T07:30:18.890Z,10.20
2019-03-03T07:33:19.894Z,10.20
2019-03-03T07:35:49.831Z,10.30
2019-03-03T07:38:20.296Z,10.30
2019-03-03T07:40:50.568Z,10.30
2019-03-03T07:43:21.180Z,10.30
2019-03-03T07:45:51.121Z,10.30
2019-03-03T07:48:21.148Z,10.30
2019-03-03T07:50:51.253Z,10.30
2019-03-03T07:53:21.454Z,10.30
2019-03-03T07:55:51.393Z,10.30
2019-03-03T07:58:22.038Z,10.40
2019-03-03T08:00:52.610Z,10.40
2019-03-03T08:03:23.098Z,10.40
2019-03-03T08:05:54.025Z,10.50
2019-03-03T08:08:24.080Z,10.50
2019-03-03T08:10:54.069Z,10.50
2019-03-03T08:13:24.109Z,10.60
2019-03-03T08:15:54.689Z,10.70
2019-03-03T08:18:24.969Z,10.70
2019-03-03T08:20:54.962Z,10.70
2019-03-03T08:23:25.164Z,10.70
2019-03-03T08:25:55.206Z,10.80
2019-03-03T08:28:25.163Z,10.90
2019-03-03T08:30:56.304Z,10.90
2019-03-03T08:33:26.367Z,11.10
2019-03-03T08:35:56.745Z,11.10
2019-03-03T08:38:26.701Z,11.20
2019-03-03T08:40:57.071Z,11.30
2019-03-03T08:43:32.785Z,11.30
2019-03-03T08:46:10.882Z,11.40
2019-03-03T08:48:49.433Z,11.40
2019-03-03T08:51:38.667Z,11.50
2019-03-03T08:54:28.489Z,11.60
2019-03-03T08:57:18.071Z,11.70
2019-03-03T08:59:57.863Z,11.80
2019-03-03T09:02:34.672Z,12.00
2019-03-03T09:05:42.849Z,12.10
2019-03-03T09:08:25.775Z,12.30
2019-03-03T09:11:08.658Z,12.40
2019-03-03T09:14:00.854Z,12.40
2019-03-03T09:16:50.304Z,12.30
2019-03-03T09:19:39.458Z,12.20
2019-03-03T09:22:22.713Z,12.20
2019-03-03T09:25:10.668Z,12.30
2019-03-03T09:27:57.167Z,12.40
2019-03-03T09:30:49.634Z,12.50
2019-03-03T09:33:39.369Z,12.70
2019-03-03T09:36:27.715Z,12.80
2019-03-03T09:39:29.175Z,13.00
2019-03-03T09:42:22.768Z,13.00
2019-03-03T09:45:14.620Z,13.10
2019-03-03T09:48:19.557Z,13.10
2019-03-03T09:51:11.769Z,13.30
2019-03-03T09:54:07.417Z,13.40
2019-03-03T09:56:47.869Z,13.40
2019-03-03T09:59:40.090Z,13.50
2019-03-03T10:02:25.875Z,13.50
2019-03-03T10:05:18.604Z,13.50
2019-03-03T10:08:10.597Z,13.60
2019-03-03T10:11:06.253Z,13.60
2019-03-03T10:13:42.337Z,13.60
2019-03-03T10:16:20.357Z,13.60
2019-03-03T10:19:07.526Z,13.60
2019-03-03T10:21:55.620Z,13.50
2019-03-03T10:24:42.909Z,13.50
2019-03-03T10:27:38.426Z,13.40
2019-03-03T10:30:28.691Z,13.40
2019-03-03T10:33:14.914Z,13.30
2019-03-03T10:36:03.351Z,13.30
2019-03-03T10:38:43.212Z,13.40
2019-03-03T10:41:32.443Z,13.50
2019-03-03T10:44:20.936Z,13.60
2019-03-03T10:47:16.524Z,13.60
2019-03-03T10:50:14.859Z,13.70
2019-03-03T10:52:52.038Z,13.70
2019-03-03T10:55:53.568Z,13.70
2019-03-03T10:58:31.811Z,13.70
2019-03-03T11:01:23.832Z,13.60
2019-03-03T11:04:15.103Z,13.60
2019-03-03T11:07:16.292Z,13.40
2019-03-03T11:10:04.017Z,13.30
2019-03-03T11:13:02.308Z,13.20
2019-03-03T11:15:48.037Z,13.00
2019-03-03T11:18:39.859Z,13.00
2019-03-03T11:21:25.524Z,12.90
2019-03-03T11:24:02.397Z,12.80
2019-03-03T11:26:39.885Z,12.90
2019-03-03T11:29:32.240Z,12.90
2019-03-03T11:32:24.142Z,13.00
2019-03-03T11:35:11.900Z,13.00
2019-03-03T11:37:49.896Z,12.90
2019-03-03T11:40:28.415Z,13.00
2019-03-03T11:43:16.529Z,13.10
2019-03-03T11:46:05.941Z,13.10
2019-03-03T11:48:57.158Z,13.10
2019-03-03T11:51:43.233Z,13.00
2019-03-03T11:54:33.324Z,13.10
2019-03-03T11:57:22.388Z,13.00
2019-03-03T12:00:12.351Z,13.00
2019-03-03T12:02:56.379Z,13.00
2019-03-03T12:05:44.525Z,12.90
2019-03-03T12:08:42.379Z,12.90
2019-03-03T12:11:46.657Z,12.90
2019-03-03T12:14:35.893Z,13.00
2019-03-03T12:17:24.994Z,13.10
2019-03-03T12:20:02.155Z,13.10
2019-03-03T12:22:46.909Z,13.00
2019-03-03T12:25:34.714Z,12.90
2019-03-03T12:28:30.200Z,12.90
2019-03-03T12:31:06.773Z,12.90
2019-03-03T12:34:07.986Z,12.90
2019-03-03T12:37:03.316Z,13.00
2019-03-03T12:39:40.773Z,13.00
2019-03-03T12:42:32.561Z,13.00
2019-03-03T12:45:19.042Z,12.90
2019-03-03T12:48:06.789Z,12.90
2019-03-03T12:51:02.389Z,12.80
2019-03-03T12:53:47.340Z,12.70
2019-03-03T12:56:42.027Z,12.70
2019-03-03T12:59:30.318Z,12.70
2019-03-03T13:02:18.374Z,12.70
2019-03-03T13:05:17.309Z,12.80
2019-03-03T13:08:06.510Z,12.90
2019-03-03T13:10:41.629Z,13.10
2019-03-03T13:13:33.527Z,13.20
2019-03-03T13:16:35.211Z,13.30
2019-03-03T13:19:31.352Z,13.30
2019-03-03T13:22:20.537Z,13.30
2019-03-03T13:25:09.637Z,13.30
2019-03-03T13:28:14.473Z,13.10
2019-03-03T13:31:03.796Z,13.00
2019-03-03T13:33:57.011Z,12.90
2019-03-03T13:36:55.315Z,12.90
2019-03-03T13:39:53.627Z,12.60
2019-03-03T13:42:29.932Z,12.50
2019-03-03T13:45:00.480Z,12.40
2019-03-03T13:47:30.599Z,12.30
2019-03-03T13:50:00.634Z,12.20
2019-03-03T13:52:30.595Z,12.10
2019-03-03T13:55:00.686Z,12.10
2019-03-03T13:57:31.030Z,12.10
2019-03-03T14:00:00.854Z,12.10
2019-03-03T14:02:30.880Z,12.10
2019-03-03T14:05:01.352Z,12.10
2019-03-03T14:07:32.158Z,12.00
2019-03-03T14:10:02.823Z,12.10
2019-03-03T14:12:32.983Z,12.10
2019-03-03T14:15:03.525Z,12.10
2019-03-03T14:17:33.894Z,12.10
2019-03-03T14:20:04.422Z,12.00
2019-03-03T14:22:34.810Z,12.00
2019-03-03T14:25:05.330Z,11.90
2019-03-03T14:27:35.407Z,11.90
2019-03-03T14:30:07.461Z,11.90
2019-03-03T14:32:38.381Z,11.90
2019-03-03T14:35:09.792Z,11.90
2019-03-03T14:37:40.011Z,11.90
2019-03-03T14:40:11.964Z,11.80
2019-03-03T14:42:42.186Z,11.80
2019-03-03T14:45:14.021Z,11.80
2019-03-03T14:47:44.275Z,11.80
2019-03-03T14:50:16.040Z,11.80
2019-03-03T14:52:47.847Z,11.80
2019-03-03T14:55:19.916Z,11.80
2019-03-03T14:57:50.074Z,11.80
2019-03-03T15:00:25.993Z,11.80
2019-03-03T15:02:56.575Z,11.80
2019-03-03T15:05:29.181Z,11.90
2019-03-03T15:07:59.254Z,12.00
2019-03-03T15:10:29.481Z,12.10
2019-03-03T15:13:00.157Z,12.10
2019-03-03T15:15:31.030Z,12.10
2019-03-03T15:18:01.608Z,12.00
2019-03-03T15:20:31.890Z,12.00
2019-03-03T15:23:02.328Z,12.00
2019-03-03T15:25:32.720Z,12.00
2019-03-03T15:28:02.968Z,11.90
2019-03-03T15:30:33.198Z,11.90
2019-03-03T15:33:03.218Z,11.90
2019-03-03T15:35:33.223Z,11.90
2019-03-03T15:38:03.688Z,11.90
2019-03-03T15:40:33.807Z,11.90
2019-03-03T15:43:04.399Z,11.90
2019-03-03T15:45:34.956Z,11.80
2019-03-03T15:48:05.219Z,11.80
2019-03-03T15:50:35.838Z,11.80
2019-03-03T15:53:05.957Z,11.70
2019-03-03T15:55:36.069Z,11.70
2019-03-03T15:58:06.413Z,11.70
2019-03-03T16:00:36.715Z,11.70
2019-03-03T16:03:07.314Z,11.70
2019-03-03T16:05:37.588Z,11.70
2019-03-03T16:08:07.679Z,11.70
2019-03-03T16:10:37.897Z,11.60
2019-03-03T16:13:08.527Z,11.60
2019-03-03T16:15:38.719Z,11.60
2019-03-03T16:18:09.671Z,11.60
2019-03-03T16:20:39.954Z,11.60
2019-03-03T16:23:10.681Z,11.60
2019-03-03T16:25:41.880Z,11.50
2019-03-03T16:28:11.965Z,11.50
2019-03-03T16:30:42.373Z,11.40
2019-03-03T16:33:20.111Z,11.40
2019-03-03T16:35:45.032Z,11.30
2019-03-03T16:38:15.059Z,11.30
2019-03-03T16:40:46.156Z,11.40
2019-03-03T16:43:16.557Z,11.30
2019-03-03T16:45:46.628Z,11.40
2019-03-03T16:48:16.805Z,11.40
2019-03-03T16:50:46.849Z,11.40
2019-03-03T16:53:17.006Z,11.40
2019-03-03T16:55:47.564Z,11.40
2019-03-03T16:58:17.876Z,11.40
2019-03-03T17:00:47.791Z,11.40
2019-03-03T17:03:18.329Z,11.40
2019-03-03T17:05:48.369Z,11.30
2019-03-03T17:08:19.456Z,11.30
2019-03-03T17:10:49.473Z,11.30
2019-03-03T17:13:19.600Z,11.30
2019-03-03T17:15:49.648Z,11.30
2019-03-03T17:18:19.543Z,11.20
2019-03-03T17:20:49.478Z,11.20
2019-03-03T17:23:19.484Z,11.20
2019-03-03T17:25:49.666Z,11.20
2019-03-03T17:28:20.204Z,11.20
2019-03-03T17:30:50.256Z,11.20
2019-03-03T17:33:20.168Z,11.20
2019-03-03T17:35:50.205Z,11.20
2019-03-03T17:38:20.599Z,11.20
2019-03-03T17:40:51.041Z,11.30
2019-03-03T17:43:21.831Z,11.30
2019-03-03T17:45:52.078Z,11.20
2019-03-03T17:48:22.312Z,11.20
2019-03-03T17:50:52.309Z,11.20
2019-03-03T17:53:22.771Z,11.20
2019-03-03T17:55:53.023Z,11.20
2019-03-03T17:58:23.529Z,11.20
2019-03-03T18:00:53.553Z,11.20
2019-03-03T18:03:24.457Z,11.20
2019-03-03T18:05:54.694Z,11.20
2019-03-03T18:08:24.959Z,11.20
2019-03-03T18:10:56.743Z,11.20
2019-03-03T18:13:27.104Z,11.20
2019-03-03T18:15:57.784Z,11.20
2019-03-03T18:18:28.735Z,11.10
2019-03-03T18:20:58.934Z,11.10
2019-03-03T18:23:29.743Z,11.10
2019-03-03T18:26:00.118Z,11.10
2019-03-03T18:28:30.355Z,11.20
2019-03-03T18:31:00.429Z,11.20
2019-03-03T18:33:30.562Z,11.20
2019-03-03T18:36:00.620Z,11.20
2019-03-03T18:38:30.741Z,11.20
2019-03-03T18:41:00.795Z,11.20
2019-03-03T18:43:30.844Z,11.20
2019-03-03T18:46:01.360Z,11.20
2019-03-03T18:48:31.816Z,11.20
2019-03-03T18:51:02.029Z,11.10
2019-03-03T18:53:31.976Z,11.10
2019-03-03T18:56:02.304Z,11.20
2019-03-03T18:58:32.567Z,11.20
2019-03-03T19:01:03.560Z,11.20
2019-03-03T19:03:33.746Z,11.20
2019-03-03T19:06:04.031Z,11.20
2019-03-03T19:08:34.638Z,11.20
2019-03-03T19:11:04.828Z,11.20
2019-03-03T19:13:35.642Z,11.10
2019-03-03T19:16:05.833Z,11.10
2019-03-03T19:18:35.808Z,11.10
2019-03-03T19:21:05.933Z,11.10
2019-03-03T19:23:36.005Z,11.10
2019-03-03T19:26:06.402Z,11.20
2019-03-03T19:28:36.334Z,11.20
2019-03-03T19:31:06.593Z,11.20
2019-03-03T19:33:47.399Z,11.20
2019-03-03T19:36:17.894Z,11.20
2019-03-03T19:38:51.800Z,11.20
2019-03-03T19:41:22.080Z,11.20
2019-03-03T19:43:52.648Z,11.20
2019-03-03T19:46:23.855Z,11.20
2019-03-03T19:48:54.079Z,11.20
2019-03-03T19:51:24.308Z,11.20
2019-03-03T19:53:55.182Z,11.20
2019-03-03T19:56:25.523Z,11.20
2019-03-03T19:58:55.837Z,11.30
2019-03-03T20:01:26.057Z,11.20
2019-03-03T20:03:56.159Z,11.20
2019-03-03T20:06:26.504Z,11.20
2019-03-03T20:08:56.797Z,11.30
2019-03-03T20:11:27.138Z,11.30
2019-03-03T20:13:57.606Z,11.30
2019-03-03T20:16:29.479Z,11.30
2019-03-03T20:18:59.943Z,11.30
2019-03-03T20:21:31.652Z,11.30
2019-03-03T20:24:02.014Z,11.30
2019-03-03T20:26:32.295Z,11.30
2019-03-03T20:29:04.543Z,11.30
2019-03-03T20:31:35.159Z,11.30
2019-03-03T20:34:05.302Z,11.30
2019-03-03T20:36:35.438Z,11.30
2019-03-03T20:39:07.321Z,11.30
2019-03-03T20:41:37.432Z,11.30
2019-03-03T20:44:09.874Z,11.30
2019-03-03T20:46:39.898Z,11.20
2019-03-03T20:49:10.000Z,11.20
2019-03-03T20:51:40.405Z,11.20
2019-03-03T20:54:10.871Z,11.20
2019-03-03T20:56:41.210Z,11.20
2019-03-03T20:59:11.627Z,11.20
2019-03-03T21:01:42.110Z,11.20
2019-03-03T21:04:14.051Z,11.10
2019-03-03T21:06:44.416Z,11.00
2019-03-03T21:09:14.873Z,10.90
2019-03-03T21:11:44.908Z,10.80
2019-03-03T21:14:15.089Z,10.80
2019-03-03T21:16:45.170Z,10.70
2019-03-03T21:19:15.436Z,10.70
2019-03-03T21:21:45.449Z,10.80
2019-03-03T21:24:15.448Z,10.90
2019-03-03T21:26:46.244Z,11.00
2019-03-03T21:29:22.116Z,11.10
2019-03-03T21:31:52.671Z,11.20
2019-03-03T21:34:25.167Z,11.30
2019-03-03T21:36:55.374Z,11.30
2019-03-03T21:39:26.214Z,11.30
2019-03-03T21:41:56.778Z,11.30
2019-03-03T21:44:27.075Z,11.40
2019-03-03T21:46:57.218Z,11.40
2019-03-03T21:49:27.731Z,11.50
2019-03-03T21:51:58.127Z,11.50
2019-03-03T21:54:29.129Z,11.50
2019-03-03T21:56:59.235Z,11.50
2019-03-03T21:59:29.471Z,11.60
2019-03-03T22:02:04.029Z,11.60
2019-03-03T22:04:34.429Z,11.60
2019-03-03T22:07:06.429Z,11.70
2019-03-03T22:09:39.091Z,11.70
2019-03-03T22:12:09.681Z,11.60
2019-03-03T22:14:41.464Z,11.60
2019-03-03T22:17:12.228Z,11.60
2019-03-03T22:19:42.690Z,11.60
2019-03-03T22:22:14.867Z,11.60
2019-03-03T22:24:44.838Z,11.60
2019-03-03T22:27:15.169Z,11.60
2019-03-03T22:29:45.793Z,11.60
2019-03-03T22:32:15.858Z,11.60
2019-03-03T22:34:46.407Z,11.60
2019-03-03T22:37:16.439Z,11.60
2019-03-03T22:39:46.313Z,11.60
2019-03-03T22:42:17.141Z,11.60
2019-03-03T22:44:47.414Z,11.60
2019-03-03T22:47:18.018Z,11.50
2019-03-03T22:49:48.004Z,11.40
2019-03-03T22:52:18.050Z,11.30
2019-03-03T22:54:48.464Z,11.30
2019-03-03T22:57:18.914Z,11.30
2019-03-03T22:59:48.952Z,11.40
2019-03-03T23:02:21.391Z,11.40
2019-03-03T23:05:16.252Z,11.40
2019-03-03T23:08:06.369Z,11.40
2019-03-03T23:11:11.687Z,11.40
2019-03-03T23:13:57.445Z,11.40
2019-03-03T23:16:55.625Z,11.40
2019-03-03T23:20:01.382Z,11.40
2019-03-03T23:22:57.049Z,11.40
2019-03-03T23:25:51.764Z,11.40
2019-03-03T23:28:23.222Z,11.40
2019-03-03T23:30:54.772Z,11.50
2019-03-03T23:33:25.049Z,11.50
2019-03-03T23:35:55.026Z,11.50
2019-03-03T23:38:25.192Z,11.60
2019-03-03T23:40:55.371Z,11.50
2019-03-03T23:43:25.464Z,11.60
2019-03-03T23:45:55.465Z,11.50
2019-03-03T23:48:25.538Z,11.50
2019-03-03T23:50:56.095Z,11.40
2019-03-03T23:53:26.431Z,11.40
2019-03-03T23:55:56.574Z,11.40
2019-03-03T23:58:26.795Z,11.30
